sensor_id;sensor_type;location;lat;lon;timestamp;pressure;altitude;pressure_sealevel;temperature;humidity
13767;BME280;47980;48.794;9.176;2023-11-19T00:02:27;98182.06;;;9.72;100.00
13767;BME280;47980;48.794;9.176;2023-11-19T00:05:00;98181.59;;;9.79;100.00
13767;BME280;47980;48.794;9.176;2023-11-19T00:07:32;98171.38;;;9.51;100.00
13767;BME280;47980;48.794;9.176;2023-11-19T00:10:05;98166.19;;;9.72;100.00
13767;BME280;47980;48.794;9.176;2023-11-19T00:12:42;98160.44;;;9.70;100.00
13767;BME280;47980;48.794;9.176;2023-11-19T00:15:16;98154.09;;;9.62;100.00
13767;BME280;47980;48.794;9.176;2023-11-19T00:17:48;98139.56;;;9.69;100.00
13767;BME280;47980;48.794;9.176;2023-11-19T00:20:20;98146.44;;;9.70;100.00
13767;BME280;47980;48.794;9.176;2023-11-19T00:22:52;98136.81;;;9.56;100.00
13767;BME280;47980;48.794;9.176;2023-11-19T00:25:23;98134.88;;;9.74;100.00
13767;BME280;47980;48.794;9.176;2023-11-19T00:27:55;98129.09;;;9.81;100.00
13767;BME280;47980;48.794;9.176;2023-11-19T00:30:28;98127.34;;;9.85;100.00
13767;BME280;47980;48.794;9.176;2023-11-19T00:33:02;98138.03;;;9.97;100.00
13767;BME280;47980;48.794;9.176;2023-11-19T00:35:33;98128.41;;;10.22;100.00
13767;BME280;47980;48.794;9.176;2023-11-19T00:38:05;98130.34;;;10.13;100.00
13767;BME280;47980;48.794;9.176;2023-11-19T00:40:37;98118.25;;;9.95;100.00
13767;BME280;47980;48.794;9.176;2023-11-19T00:43:08;98112.03;;;9.91;100.00
13767;BME280;47980;48.794;9.176;2023-11-19T00:45:41;98123.81;;;10.02;100.00
13767;BME280;47980;48.794;9.176;2023-11-19T00:48:13;98118.09;;;10.00;100.00
13767;BME280;47980;48.794;9.176;2023-11-19T00:50:44;98109.16;;;10.34;100.00
13767;BME280;47980;48.794;9.176;2023-11-19T00:53:16;98101.41;;;10.20;100.00
13767;BME280;47980;48.794;9.176;2023-11-19T00:55:48;98098.63;;;10.25;100.00
13767;BME280;47980;48.794;9.176;2023-11-19T00:58:19;98097.38;;;10.23;100.00
13767;BME280;47980;48.794;9.176;2023-11-19T01:00:52;98103.44;;;9.94;100.00
13767;BME280;47980;48.794;9.176;2023-11-19T01:03:24;98095.13;;;10.04;100.00
13767;BME280;47980;48.794;9.176;2023-11-19T01:05:56;98102.91;;;10.09;100.00
13767;BME280;47980;48.794;9.176;2023-11-19T01:08:29;98091.13;;;10.27;100.00
13767;BME280;47980;48.794;9.176;2023-11-19T01:11:01;98086.31;;;10.21;100.00
13767;BME280;47980;48.794;9.176;2023-11-19T01:13:33;98090.31;;;10.35;100.00
13767;BME280;47980;48.794;9.176;2023-11-19T01:16:07;98092.38;;;10.51;100.00
13767;BME280;47980;48.794;9.176;2023-11-19T01:18:40;98100.31;;;10.51;100.00
13767;BME280;47980;48.794;9.176;2023-11-19T01:21:12;98090.69;;;10.46;100.00
13767;BME280;47980;48.794;9.176;2023-11-19T01:23:44;98090.16;;;10.74;100.00
13767;BME280;47980;48.794;9.176;2023-11-19T01:26:16;98087.63;;;10.56;100.00
13767;BME280;47980;48.794;9.176;2023-11-19T01:28:47;98080.47;;;10.57;100.00
13767;BME280;47980;48.794;9.176;2023-11-19T01:31:20;98079.34;;;10.79;100.00
13767;BME280;47980;48.794;9.176;2023-11-19T01:33:52;98079.75;;;10.48;100.00
13767;BME280;47980;48.794;9.176;2023-11-19T01:36:23;98071.81;;;10.18;100.00
13767;BME280;47980;48.794;9.176;2023-11-19T01:39:17;98076.13;;;10.52;100.00
13767;BME280;47980;48.794;9.176;2023-11-19T01:41:50;98084.22;;;10.35;100.00
13767;BME280;47980;48.794;9.176;2023-11-19T01:44:22;98066.19;;;10.28;100.00
13767;BME280;47980;48.794;9.176;2023-11-19T01:46:55;98073.88;;;10.42;100.00
13767;BME280;47980;48.794;9.176;2023-11-19T01:49:26;98072.31;;;10.41;100.00
13767;BME280;47980;48.794;9.176;2023-11-19T01:51:59;98064.44;;;10.32;100.00
13767;BME280;47980;48.794;9.176;2023-11-19T01:54:31;98068.97;;;10.23;100.00
13767;BME280;47980;48.794;9.176;2023-11-19T01:57:03;98073.03;;;10.29;100.00
13767;BME280;47980;48.794;9.176;2023-11-19T01:59:36;98069.47;;;10.17;100.00
13767;BME280;47980;48.794;9.176;2023-11-19T02:02:10;98076.72;;;10.37;100.00
13767;BME280;47980;48.794;9.176;2023-11-19T02:04:43;98077.03;;;10.35;100.00
13767;BME280;47980;48.794;9.176;2023-11-19T02:07:15;98067.97;;;10.36;100.00
13767;BME280;47980;48.794;9.176;2023-11-19T02:09:47;98068.44;;;10.39;100.00
13767;BME280;47980;48.794;9.176;2023-11-19T02:12:19;98070.16;;;10.34;100.00
13767;BME280;47980;48.794;9.176;2023-11-19T02:14:50;98061.66;;;10.29;100.00
13767;BME280;47980;48.794;9.176;2023-11-19T02:17:27;98059.06;;;10.41;100.00
13767;BME280;47980;48.794;9.176;2023-11-19T02:19:58;98059.25;;;10.36;100.00
13767;BME280;47980;48.794;9.176;2023-11-19T02:22:30;98056.78;;;10.31;100.00
13767;BME280;47980;48.794;9.176;2023-11-19T02:25:04;98053.59;;;10.79;100.00
13767;BME280;47980;48.794;9.176;2023-11-19T02:27:45;98045.19;;;10.56;100.00
13767;BME280;47980;48.794;9.176;2023-11-19T02:30:18;98040.44;;;10.50;100.00
13767;BME280;47980;48.794;9.176;2023-11-19T02:32:50;98045.75;;;10.50;100.00
13767;BME280;47980;48.794;9.176;2023-11-19T02:35:21;98041.31;;;10.75;100.00
13767;BME280;47980;48.794;9.176;2023-11-19T02:37:54;98043.72;;;10.68;100.00
13767;BME280;47980;48.794;9.176;2023-11-19T02:40:25;98046.75;;;10.57;100.00
13767;BME280;47980;48.794;9.176;2023-11-19T02:42:58;98046.69;;;10.66;100.00
13767;BME280;47980;48.794;9.176;2023-11-19T02:45:30;98041.72;;;10.65;100.00
13767;BME280;47980;48.794;9.176;2023-11-19T02:48:02;98047.53;;;10.58;100.00
13767;BME280;47980;48.794;9.176;2023-11-19T02:50:36;98050.88;;;10.67;100.00
13767;BME280;47980;48.794;9.176;2023-11-19T02:53:08;98056.91;;;10.89;100.00
13767;BME280;47980;48.794;9.176;2023-11-19T02:55:39;98060.91;;;10.82;100.00
13767;BME280;47980;48.794;9.176;2023-11-19T02:58:20;98053.91;;;10.78;100.00
13767;BME280;47980;48.794;9.176;2023-11-19T03:00:54;98044.41;;;10.77;100.00
13767;BME280;47980;48.794;9.176;2023-11-19T03:03:28;98040.31;;;10.79;100.00
13767;BME280;47980;48.794;9.176;2023-11-19T03:06:08;98045.00;;;10.62;100.00
13767;BME280;47980;48.794;9.176;2023-11-19T03:08:40;98047.00;;;10.65;100.00
13767;BME280;47980;48.794;9.176;2023-11-19T03:11:11;98047.81;;;10.77;100.00
13767;BME280;47980;48.794;9.176;2023-11-19T03:13:44;98052.69;;;10.75;100.00
13767;BME280;47980;48.794;9.176;2023-11-19T03:16:16;98060.31;;;10.77;100.00
13767;BME280;47980;48.794;9.176;2023-11-19T03:18:48;98057.78;;;10.80;100.00
13767;BME280;47980;48.794;9.176;2023-11-19T03:21:27;98058.06;;;11.00;100.00
13767;BME280;47980;48.794;9.176;2023-11-19T03:23:58;98054.56;;;11.08;100.00
13767;BME280;47980;48.794;9.176;2023-11-19T03:26:30;98056.50;;;10.99;100.00
13767;BME280;47980;48.794;9.176;2023-11-19T03:29:05;98059.16;;;10.99;100.00
13767;BME280;47980;48.794;9.176;2023-11-19T03:31:41;98059.63;;;11.01;100.00
13767;BME280;47980;48.794;9.176;2023-11-19T03:34:13;98062.41;;;11.04;100.00
13767;BME280;47980;48.794;9.176;2023-11-19T03:36:44;98052.56;;;11.05;100.00
13767;BME280;47980;48.794;9.176;2023-11-19T03:39:16;98047.13;;;11.01;100.00
13767;BME280;47980;48.794;9.176;2023-11-19T03:41:48;98044.53;;;10.93;100.00
13767;BME280;47980;48.794;9.176;2023-11-19T03:44:21;98043.06;;;11.04;100.00
13767;BME280;47980;48.794;9.176;2023-11-19T03:46:52;98040.81;;;11.06;100.00
13767;BME280;47980;48.794;9.176;2023-11-19T03:49:24;98037.63;;;11.13;100.00
13767;BME280;47980;48.794;9.176;2023-11-19T03:51:56;98037.41;;;11.18;100.00
13767;BME280;47980;48.794;9.176;2023-11-19T03:54:30;98041.75;;;11.22;100.00
13767;BME280;47980;48.794;9.176;2023-11-19T03:57:03;98035.66;;;11.22;100.00
13767;BME280;47980;48.794;9.176;2023-11-19T03:59:36;98028.03;;;11.20;100.00
13767;BME280;47980;48.794;9.176;2023-11-19T04:02:08;98018.28;;;11.24;100.00
13767;BME280;47980;48.794;9.176;2023-11-19T04:04:40;98007.78;;;11.28;100.00
13767;BME280;47980;48.794;9.176;2023-11-19T04:07:11;98003.91;;;11.25;100.00
13767;BME280;47980;48.794;9.176;2023-11-19T04:09:43;98003.34;;;11.32;100.00
13767;BME280;47980;48.794;9.176;2023-11-19T04:12:16;98013.56;;;11.30;100.00
13767;BME280;47980;48.794;9.176;2023-11-19T04:14:49;98014.97;;;11.40;100.00
13767;BME280;47980;48.794;9.176;2023-11-19T04:17:21;98005.34;;;11.60;100.00
13767;BME280;47980;48.794;9.176;2023-11-19T04:19:53;98008.91;;;11.51;100.00
13767;BME280;47980;48.794;9.176;2023-11-19T04:22:24;98011.22;;;11.53;100.00
13767;BME280;47980;48.794;9.176;2023-11-19T04:24:56;98016.53;;;11.53;100.00
13767;BME280;47980;48.794;9.176;2023-11-19T04:27:28;98012.44;;;11.68;100.00
13767;BME280;47980;48.794;9.176;2023-11-19T04:30:01;98005.25;;;11.80;100.00
13767;BME280;47980;48.794;9.176;2023-11-19T04:32:33;98006.44;;;11.83;100.00
13767;BME280;47980;48.794;9.176;2023-11-19T04:35:06;98005.38;;;11.84;100.00
13767;BME280;47980;48.794;9.176;2023-11-19T04:37:38;98005.44;;;11.75;100.00
13767;BME280;47980;48.794;9.176;2023-11-19T04:40:10;98009.22;;;11.74;100.00
13767;BME280;47980;48.794;9.176;2023-11-19T04:42:42;98015.97;;;11.72;100.00
13767;BME280;47980;48.794;9.176;2023-11-19T04:45:15;98017.66;;;11.89;100.00
13767;BME280;47980;48.794;9.176;2023-11-19T04:47:46;98014.75;;;11.81;100.00
13767;BME280;47980;48.794;9.176;2023-11-19T04:50:18;98016.00;;;11.84;100.00
13767;BME280;47980;48.794;9.176;2023-11-19T04:52:49;98017.06;;;11.83;100.00
13767;BME280;47980;48.794;9.176;2023-11-19T04:55:21;98015.88;;;11.80;100.00
13767;BME280;47980;48.794;9.176;2023-11-19T04:57:53;98017.63;;;12.01;100.00
13767;BME280;47980;48.794;9.176;2023-11-19T05:00:26;98021.16;;;12.05;100.00
13767;BME280;47980;48.794;9.176;2023-11-19T05:02:58;98019.84;;;11.99;100.00
13767;BME280;47980;48.794;9.176;2023-11-19T05:05:29;98012.97;;;11.98;100.00
13767;BME280;47980;48.794;9.176;2023-11-19T05:08:01;98012.09;;;11.94;100.00
13767;BME280;47980;48.794;9.176;2023-11-19T05:10:32;98014.16;;;12.13;100.00
13767;BME280;47980;48.794;9.176;2023-11-19T05:13:04;98017.31;;;12.02;100.00
13767;BME280;47980;48.794;9.176;2023-11-19T05:15:37;98014.75;;;12.06;100.00
13767;BME280;47980;48.794;9.176;2023-11-19T05:18:08;98021.50;;;12.03;100.00
13767;BME280;47980;48.794;9.176;2023-11-19T05:20:40;98011.63;;;12.04;100.00
13767;BME280;47980;48.794;9.176;2023-11-19T05:23:11;98013.28;;;12.09;100.00
13767;BME280;47980;48.794;9.176;2023-11-19T05:25:43;98014.47;;;12.23;100.00
13767;BME280;47980;48.794;9.176;2023-11-19T05:28:15;98020.56;;;12.24;100.00
13767;BME280;47980;48.794;9.176;2023-11-19T05:30:48;98023.56;;;12.22;100.00
13767;BME280;47980;48.794;9.176;2023-11-19T05:33:20;98021.91;;;12.18;100.00
13767;BME280;47980;48.794;9.176;2023-11-19T05:35:52;98029.34;;;12.12;100.00
13767;BME280;47980;48.794;9.176;2023-11-19T05:38:23;98023.00;;;12.29;100.00
13767;BME280;47980;48.794;9.176;2023-11-19T05:40:54;98038.19;;;12.28;100.00
13767;BME280;47980;48.794;9.176;2023-11-19T05:43:26;98032.09;;;12.28;100.00
13767;BME280;47980;48.794;9.176;2023-11-19T05:45:59;98025.94;;;12.40;100.00
13767;BME280;47980;48.794;9.176;2023-11-19T05:48:31;98021.53;;;12.32;100.00
13767;BME280;47980;48.794;9.176;2023-11-19T05:51:03;98016.03;;;12.24;100.00
13767;BME280;47980;48.794;9.176;2023-11-19T05:53:35;98014.47;;;12.23;100.00
13767;BME280;47980;48.794;9.176;2023-11-19T05:56:08;98017.41;;;12.34;100.00
13767;BME280;47980;48.794;9.176;2023-11-19T05:58:40;98003.44;;;12.37;100.00
13767;BME280;47980;48.794;9.176;2023-11-19T06:01:13;97991.94;;;12.33;100.00
13767;BME280;47980;48.794;9.176;2023-11-19T06:03:45;98001.47;;;12.34;100.00
13767;BME280;47980;48.794;9.176;2023-11-19T06:06:19;98008.81;;;12.25;100.00
13767;BME280;47980;48.794;9.176;2023-11-19T06:08:51;98008.47;;;12.26;100.00
13767;BME280;47980;48.794;9.176;2023-11-19T06:11:23;98017.47;;;12.22;100.00
13767;BME280;47980;48.794;9.176;2023-11-19T06:13:57;98008.63;;;12.18;100.00
13767;BME280;47980;48.794;9.176;2023-11-19T06:16:29;98017.47;;;12.22;100.00
13767;BME280;47980;48.794;9.176;2023-11-19T06:19:01;98022.47;;;12.11;100.00
13767;BME280;47980;48.794;9.176;2023-11-19T06:21:33;98026.00;;;12.15;100.00
13767;BME280;47980;48.794;9.176;2023-11-19T06:24:06;98028.56;;;12.12;100.00
13767;BME280;47980;48.794;9.176;2023-11-19T06:26:39;98041.19;;;12.15;100.00
13767;BME280;47980;48.794;9.176;2023-11-19T06:29:10;98034.09;;;12.19;100.00
13767;BME280;47980;48.794;9.176;2023-11-19T06:31:43;98032.75;;;12.25;100.00
13767;BME280;47980;48.794;9.176;2023-11-19T06:34:14;98036.97;;;12.26;100.00
13767;BME280;47980;48.794;9.176;2023-11-19T06:36:46;98038.50;;;12.27;100.00
13767;BME280;47980;48.794;9.176;2023-11-19T06:39:18;98041.72;;;12.33;100.00
13767;BME280;47980;48.794;9.176;2023-11-19T06:41:50;98049.28;;;12.18;100.00
13767;BME280;47980;48.794;9.176;2023-11-19T06:44:21;98046.38;;;12.23;100.00
13767;BME280;47980;48.794;9.176;2023-11-19T06:46:54;98049.03;;;12.36;100.00
13767;BME280;47980;48.794;9.176;2023-11-19T06:49:26;98050.25;;;12.38;100.00
13767;BME280;47980;48.794;9.176;2023-11-19T06:51:58;98045.88;;;12.46;100.00
13767;BME280;47980;48.794;9.176;2023-11-19T06:54:29;98053.31;;;12.40;100.00
13767;BME280;47980;48.794;9.176;2023-11-19T06:57:01;98061.41;;;12.44;100.00
13767;BME280;47980;48.794;9.176;2023-11-19T06:59:33;98063.72;;;12.45;100.00
13767;BME280;47980;48.794;9.176;2023-11-19T07:02:06;98065.94;;;12.43;100.00
13767;BME280;47980;48.794;9.176;2023-11-19T07:04:37;98059.88;;;12.43;100.00
13767;BME280;47980;48.794;9.176;2023-11-19T07:07:09;98061.75;;;12.42;100.00
13767;BME280;47980;48.794;9.176;2023-11-19T07:09:40;98061.75;;;12.30;100.00
13767;BME280;47980;48.794;9.176;2023-11-19T07:12:12;98052.03;;;12.22;100.00
13767;BME280;47980;48.794;9.176;2023-11-19T07:14:44;98048.72;;;12.25;100.00
13767;BME280;47980;48.794;9.176;2023-11-19T07:17:18;98058.69;;;12.28;100.00
13767;BME280;47980;48.794;9.176;2023-11-19T07:19:50;98067.53;;;12.32;100.00
13767;BME280;47980;48.794;9.176;2023-11-19T07:22:22;98056.91;;;12.32;100.00
13767;BME280;47980;48.794;9.176;2023-11-19T07:24:53;98049.25;;;12.31;100.00
13767;BME280;47980;48.794;9.176;2023-11-19T07:27:25;98064.44;;;12.30;100.00
13767;BME280;47980;48.794;9.176;2023-11-19T07:29:56;98048.78;;;12.41;100.00
13767;BME280;47980;48.794;9.176;2023-11-19T07:32:29;98064.41;;;12.42;100.00
13767;BME280;47980;48.794;9.176;2023-11-19T07:35:01;98072.50;;;12.46;100.00
13767;BME280;47980;48.794;9.176;2023-11-19T07:37:32;98080.22;;;12.51;100.00
13767;BME280;47980;48.794;9.176;2023-11-19T07:40:05;98085.34;;;12.44;100.00
13767;BME280;47980;48.794;9.176;2023-11-19T07:42:36;98084.22;;;12.45;100.00
13767;BME280;47980;48.794;9.176;2023-11-19T07:45:09;98088.47;;;12.46;100.00
13767;BME280;47980;48.794;9.176;2023-11-19T07:47:41;98083.75;;;12.67;100.00
13767;BME280;47980;48.794;9.176;2023-11-19T07:50:14;98085.56;;;12.51;100.00
13767;BME280;47980;48.794;9.176;2023-11-19T07:52:47;98084.72;;;12.63;100.00
13767;BME280;47980;48.794;9.176;2023-11-19T07:55:18;98087.19;;;12.56;100.00
13767;BME280;47980;48.794;9.176;2023-11-19T07:57:50;98103.25;;;12.59;100.00
13767;BME280;47980;48.794;9.176;2023-11-19T08:00:21;98091.94;;;12.62;100.00
13767;BME280;47980;48.794;9.176;2023-11-19T08:02:54;98095.88;;;12.81;100.00
13767;BME280;47980;48.794;9.176;2023-11-19T08:05:27;98097.50;;;12.85;100.00
13767;BME280;47980;48.794;9.176;2023-11-19T08:07:59;98085.66;;;12.83;100.00
13767;BME280;47980;48.794;9.176;2023-11-19T08:10:31;98084.16;;;12.97;100.00
13767;BME280;47980;48.794;9.176;2023-11-19T08:13:03;98091.22;;;13.06;100.00
13767;BME280;47980;48.794;9.176;2023-11-19T08:15:35;98085.56;;;13.07;100.00
13767;BME280;47980;48.794;9.176;2023-11-19T08:18:07;98089.38;;;12.94;100.00
13767;BME280;47980;48.794;9.176;2023-11-19T08:20:39;98092.66;;;13.03;100.00
13767;BME280;47980;48.794;9.176;2023-11-19T08:23:11;98081.50;;;12.97;100.00
13767;BME280;47980;48.794;9.176;2023-11-19T08:25:43;98091.41;;;13.13;100.00
13767;BME280;47980;48.794;9.176;2023-11-19T08:28:14;98090.25;;;13.26;100.00
13767;BME280;47980;48.794;9.176;2023-11-19T08:30:46;98100.16;;;13.41;100.00
13767;BME280;47980;48.794;9.176;2023-11-19T08:33:19;98104.03;;;13.60;100.00
13767;BME280;47980;48.794;9.176;2023-11-19T08:35:52;98091.28;;;13.53;100.00
13767;BME280;47980;48.794;9.176;2023-11-19T08:38:24;98091.53;;;13.80;100.00
13767;BME280;47980;48.794;9.176;2023-11-19T08:40:55;98096.91;;;14.31;100.00
13767;BME280;47980;48.794;9.176;2023-11-19T08:43:29;98092.09;;;14.75;100.00
13767;BME280;47980;48.794;9.176;2023-11-19T08:46:01;98111.56;;;14.76;100.00
13767;BME280;47980;48.794;9.176;2023-11-19T08:48:34;98103.78;;;14.67;100.00
13767;BME280;47980;48.794;9.176;2023-11-19T08:51:06;98099.53;;;14.66;99.52
13767;BME280;47980;48.794;9.176;2023-11-19T08:53:37;98095.69;;;14.48;100.00
13767;BME280;47980;48.794;9.176;2023-11-19T08:56:09;98094.63;;;14.33;100.00
13767;BME280;47980;48.794;9.176;2023-11-19T08:58:40;98102.91;;;14.28;100.00
13767;BME280;47980;48.794;9.176;2023-11-19T09:01:12;98106.28;;;14.09;100.00
13767;BME280;47980;48.794;9.176;2023-11-19T09:03:45;98103.41;;;14.33;100.00
13767;BME280;47980;48.794;9.176;2023-11-19T09:06:16;98088.72;;;14.59;100.00
13767;BME280;47980;48.794;9.176;2023-11-19T09:08:48;98096.25;;;14.73;100.00
13767;BME280;47980;48.794;9.176;2023-11-19T09:11:19;98093.47;;;14.88;99.57
13767;BME280;47980;48.794;9.176;2023-11-19T09:13:51;98098.00;;;15.27;97.71
13767;BME280;47980;48.794;9.176;2023-11-19T09:16:23;98093.03;;;15.06;97.06
13767;BME280;47980;48.794;9.176;2023-11-19T09:18:55;98102.78;;;15.17;97.86
13767;BME280;47980;48.794;9.176;2023-11-19T09:21:28;98101.06;;;15.06;96.92
13767;BME280;47980;48.794;9.176;2023-11-19T09:24:00;98106.78;;;14.85;97.31
13767;BME280;47980;48.794;9.176;2023-11-19T09:26:31;98115.06;;;14.60;99.64
13767;BME280;47980;48.794;9.176;2023-11-19T09:29:03;98120.41;;;14.60;99.62
13767;BME280;47980;48.794;9.176;2023-11-19T09:31:34;98124.13;;;14.56;99.67
13767;BME280;47980;48.794;9.176;2023-11-19T09:34:07;98134.47;;;14.41;100.00
13767;BME280;47980;48.794;9.176;2023-11-19T09:36:39;98132.28;;;14.63;100.00
13767;BME280;47980;48.794;9.176;2023-11-19T09:39:14;98143.06;;;14.86;99.04
13767;BME280;47980;48.794;9.176;2023-11-19T09:41:48;98132.00;;;15.07;98.63
13767;BME280;47980;48.794;9.176;2023-11-19T09:44:19;98121.63;;;15.25;97.59
13767;BME280;47980;48.794;9.176;2023-11-19T09:46:52;98117.66;;;14.96;96.04
13767;BME280;47980;48.794;9.176;2023-11-19T09:49:26;98116.03;;;15.53;94.80
13767;BME280;47980;48.794;9.176;2023-11-19T09:51:58;98127.66;;;15.83;93.51
13767;BME280;47980;48.794;9.176;2023-11-19T09:54:29;98122.16;;;15.99;91.67
13767;BME280;47980;48.794;9.176;2023-11-19T09:57:02;98122.56;;;16.01;91.81
13767;BME280;47980;48.794;9.176;2023-11-19T09:59:36;98130.44;;;16.17;91.10
13767;BME280;47980;48.794;9.176;2023-11-19T10:02:08;98121.53;;;16.36;89.13
13767;BME280;47980;48.794;9.176;2023-11-19T10:04:42;98124.72;;;15.92;89.49
13767;BME280;47980;48.794;9.176;2023-11-19T10:07:14;98116.91;;;16.06;90.29
13767;BME280;47980;48.794;9.176;2023-11-19T10:09:46;98112.91;;;15.97;91.91
13767;BME280;47980;48.794;9.176;2023-11-19T10:12:18;98098.66;;;15.89;90.29
13767;BME280;47980;48.794;9.176;2023-11-19T10:14:50;98112.16;;;15.96;89.84
13767;BME280;47980;48.794;9.176;2023-11-19T10:17:21;98109.47;;;15.96;90.67
13767;BME280;47980;48.794;9.176;2023-11-19T10:19:54;98109.78;;;16.18;89.17
13767;BME280;47980;48.794;9.176;2023-11-19T10:22:27;98108.91;;;16.10;89.72
13767;BME280;47980;48.794;9.176;2023-11-19T10:24:59;98105.94;;;16.15;89.94
13767;BME280;47980;48.794;9.176;2023-11-19T10:27:30;98102.94;;;16.20;88.34
13767;BME280;47980;48.794;9.176;2023-11-19T10:30:02;98101.38;;;16.19;88.57
13767;BME280;47980;48.794;9.176;2023-11-19T10:32:35;98114.28;;;16.10;88.18
13767;BME280;47980;48.794;9.176;2023-11-19T10:35:08;98105.78;;;16.31;87.06
13767;BME280;47980;48.794;9.176;2023-11-19T10:37:42;98118.81;;;16.06;89.31
13767;BME280;47980;48.794;9.176;2023-11-19T10:40:15;98116.88;;;16.33;86.85
13767;BME280;47980;48.794;9.176;2023-11-19T10:42:47;98109.66;;;16.37;83.12
13767;BME280;47980;48.794;9.176;2023-11-19T10:45:22;98106.06;;;16.52;80.24
13767;BME280;47980;48.794;9.176;2023-11-19T10:47:55;98098.19;;;16.67;77.96
13767;BME280;47980;48.794;9.176;2023-11-19T10:50:28;98090.81;;;16.56;76.76
13767;BME280;47980;48.794;9.176;2023-11-19T10:53:00;98091.66;;;16.64;74.97
13767;BME280;47980;48.794;9.176;2023-11-19T10:55:34;98101.91;;;16.85;76.05
13767;BME280;47980;48.794;9.176;2023-11-19T10:58:07;98083.19;;;16.89;73.91
13767;BME280;47980;48.794;9.176;2023-11-19T11:00:44;98090.47;;;16.92;73.78
13767;BME280;47980;48.794;9.176;2023-11-19T11:03:17;98087.13;;;17.02;73.64
13767;BME280;47980;48.794;9.176;2023-11-19T11:05:51;98085.88;;;16.92;73.34
13767;BME280;47980;48.794;9.176;2023-11-19T11:08:23;98085.00;;;16.84;73.38
13767;BME280;47980;48.794;9.176;2023-11-19T11:10:55;98084.56;;;17.13;71.02
13767;BME280;47980;48.794;9.176;2023-11-19T11:13:27;98095.88;;;16.65;73.84
13767;BME280;47980;48.794;9.176;2023-11-19T11:15:59;98096.47;;;16.51;71.03
13767;BME280;47980;48.794;9.176;2023-11-19T11:18:31;98091.63;;;16.60;71.80
13767;BME280;47980;48.794;9.176;2023-11-19T11:21:07;98082.22;;;16.44;69.08
13767;BME280;47980;48.794;9.176;2023-11-19T11:24:03;98089.19;;;16.22;69.21
13767;BME280;47980;48.794;9.176;2023-11-19T11:26:55;98093.88;;;16.28;68.92
13767;BME280;47980;48.794;9.176;2023-11-19T11:29:37;98091.09;;;16.51;67.70
13767;BME280;47980;48.794;9.176;2023-11-19T11:32:20;98069.72;;;16.55;68.18
13767;BME280;47980;48.794;9.176;2023-11-19T11:35:12;98065.63;;;16.65;67.73
13767;BME280;47980;48.794;9.176;2023-11-19T11:37:55;98070.56;;;16.29;67.48
13767;BME280;47980;48.794;9.176;2023-11-19T11:40:31;98070.84;;;16.20;69.06
13767;BME280;47980;48.794;9.176;2023-11-19T11:43:03;98069.19;;;15.85;69.83
13767;BME280;47980;48.794;9.176;2023-11-19T11:45:36;98063.94;;;15.93;70.41
13767;BME280;47980;48.794;9.176;2023-11-19T11:48:12;98063.22;;;15.69;71.39
13767;BME280;47980;48.794;9.176;2023-11-19T11:50:53;98058.38;;;15.78;71.52
13767;BME280;47980;48.794;9.176;2023-11-19T11:53:27;98066.72;;;16.00;71.61
13767;BME280;47980;48.794;9.176;2023-11-19T11:55:58;98057.00;;;15.88;71.46
13767;BME280;47980;48.794;9.176;2023-11-19T11:58:32;98061.31;;;15.96;71.47
13767;BME280;47980;48.794;9.176;2023-11-19T12:01:04;98053.50;;;16.10;70.30
13767;BME280;47980;48.794;9.176;2023-11-19T12:03:39;98051.56;;;16.11;72.05
13767;BME280;47980;48.794;9.176;2023-11-19T12:06:10;98052.00;;;16.13;71.37
13767;BME280;47980;48.794;9.176;2023-11-19T12:08:43;98060.44;;;16.15;70.97
13767;BME280;47980;48.794;9.176;2023-11-19T12:11:16;98049.59;;;16.34;69.54
13767;BME280;47980;48.794;9.176;2023-11-19T12:13:56;98051.41;;;16.27;69.34
13767;BME280;47980;48.794;9.176;2023-11-19T12:16:29;98051.94;;;16.40;68.16
13767;BME280;47980;48.794;9.176;2023-11-19T12:19:04;98060.66;;;16.63;67.91
13767;BME280;47980;48.794;9.176;2023-11-19T12:21:35;98042.22;;;16.58;66.74
13767;BME280;47980;48.794;9.176;2023-11-19T12:24:10;98041.13;;;16.63;65.87
13767;BME280;47980;48.794;9.176;2023-11-19T12:26:42;98030.66;;;16.84;65.85
13767;BME280;47980;48.794;9.176;2023-11-19T12:29:14;98027.56;;;16.78;63.57
13767;BME280;47980;48.794;9.176;2023-11-19T12:31:53;98030.53;;;16.40;64.62
13767;BME280;47980;48.794;9.176;2023-11-19T12:34:25;98015.47;;;16.61;64.60
13767;BME280;47980;48.794;9.176;2023-11-19T12:36:57;98010.94;;;16.66;63.73
13767;BME280;47980;48.794;9.176;2023-11-19T12:39:30;98000.78;;;16.48;64.47
13767;BME280;47980;48.794;9.176;2023-11-19T12:42:02;98004.19;;;16.42;64.54
13767;BME280;47980;48.794;9.176;2023-11-19T12:44:34;98003.16;;;16.53;63.41
13767;BME280;47980;48.794;9.176;2023-11-19T12:47:06;98002.94;;;16.69;63.44
13767;BME280;47980;48.794;9.176;2023-11-19T12:49:38;98002.66;;;16.44;62.75
13767;BME280;47980;48.794;9.176;2023-11-19T12:52:13;98002.38;;;16.53;62.74
13767;BME280;47980;48.794;9.176;2023-11-19T12:54:45;98000.66;;;16.34;62.12
13767;BME280;47980;48.794;9.176;2023-11-19T12:57:17;97984.66;;;16.11;62.89
13767;BME280;47980;48.794;9.176;2023-11-19T12:59:56;97997.75;;;16.50;62.31
13767;BME280;47980;48.794;9.176;2023-11-19T13:02:45;97991.44;;;16.69;61.79
13767;BME280;47980;48.794;9.176;2023-11-19T13:05:29;97991.03;;;16.63;61.60
13767;BME280;47980;48.794;9.176;2023-11-19T13:08:03;97987.53;;;16.96;59.75
13767;BME280;47980;48.794;9.176;2023-11-19T13:10:50;97988.19;;;16.49;62.51
13767;BME280;47980;48.794;9.176;2023-11-19T13:13:23;97998.16;;;16.52;61.82
13767;BME280;47980;48.794;9.176;2023-11-19T13:16:01;97992.88;;;16.59;61.68
13767;BME280;47980;48.794;9.176;2023-11-19T13:18:35;98003.66;;;16.66;60.53
13767;BME280;47980;48.794;9.176;2023-11-19T13:21:07;97987.84;;;16.91;59.12
13767;BME280;47980;48.794;9.176;2023-11-19T13:23:38;97997.03;;;16.53;59.89